sensor_id;sensor_type;location;lat;lon;timestamp;P1;durP1;ratioP1;P2;durP2;ratioP2
34064;SDS011;20339;49.754;20.158;2022-07-30T00:02:03;6.50;;;3.30;;
34064;SDS011;20339;49.754;20.158;2022-07-30T00:04:37;5.10;;;3.40;;
34064;SDS011;20339;49.754;20.158;2022-07-30T00:07:11;6.40;;;3.30;;
34064;SDS011;20339;49.754;20.158;2022-07-30T00:09:44;6.70;;;3.80;;
34064;SDS011;20339;49.754;20.158;2022-07-30T00:12:19;3.90;;;3.40;;
34064;SDS011;20339;49.754;20.158;2022-07-30T00:14:55;4.60;;;4.10;;
34064;SDS011;20339;49.754;20.158;2022-07-30T00:17:27;4.60;;;3.70;;
34064;SDS011;20339;49.754;20.158;2022-07-30T00:20:00;4.80;;;3.40;;
34064;SDS011;20339;49.754;20.158;2022-07-30T00:22:32;4.70;;;3.70;;
34064;SDS011;20339;49.754;20.158;2022-07-30T00:25:06;4.60;;;3.60;;
34064;SDS011;20339;49.754;20.158;2022-07-30T00:27:40;4.30;;;4.00;;
34064;SDS011;20339;49.754;20.158;2022-07-30T00:30:12;5.90;;;4.20;;
34064;SDS011;20339;49.754;20.158;2022-07-30T00:32:46;5.10;;;3.90;;
34064;SDS011;20339;49.754;20.158;2022-07-30T00:35:20;6.20;;;3.70;;
34064;SDS011;20339;49.754;20.158;2022-07-30T00:37:52;5.30;;;4.50;;
34064;SDS011;20339;49.754;20.158;2022-07-30T00:40:23;5.30;;;3.90;;
34064;SDS011;20339;49.754;20.158;2022-07-30T00:42:57;4.30;;;3.50;;
34064;SDS011;20339;49.754;20.158;2022-07-30T00:45:28;5.50;;;3.70;;
34064;SDS011;20339;49.754;20.158;2022-07-30T00:48:01;6.90;;;3.10;;
34064;SDS011;20339;49.754;20.158;2022-07-30T00:50:33;4.00;;;3.20;;
34064;SDS011;20339;49.754;20.158;2022-07-30T00:53:06;3.50;;;3.10;;
34064;SDS011;20339;49.754;20.158;2022-07-30T00:55:40;4.80;;;3.30;;
34064;SDS011;20339;49.754;20.158;2022-07-30T00:58:12;5.20;;;3.40;;
34064;SDS011;20339;49.754;20.158;2022-07-30T01:00:44;4.30;;;3.30;;
34064;SDS011;20339;49.754;20.158;2022-07-30T01:03:15;3.50;;;3.20;;
34064;SDS011;20339;49.754;20.158;2022-07-30T01:05:47;4.50;;;2.90;;
34064;SDS011;20339;49.754;20.158;2022-07-30T01:08:19;4.70;;;3.50;;
34064;SDS011;20339;49.754;20.158;2022-07-30T01:10:51;5.70;;;3.50;;
34064;SDS011;20339;49.754;20.158;2022-07-30T01:13:23;5.20;;;3.40;;
34064;SDS011;20339;49.754;20.158;2022-07-30T01:15:55;3.60;;;3.10;;
34064;SDS011;20339;49.754;20.158;2022-07-30T01:18:30;3.80;;;3.40;;
34064;SDS011;20339;49.754;20.158;2022-07-30T01:21:20;4.20;;;3.10;;
34064;SDS011;20339;49.754;20.158;2022-07-30T01:24:02;5.70;;;3.40;;
34064;SDS011;20339;49.754;20.158;2022-07-30T01:26:45;4.50;;;3.40;;
34064;SDS011;20339;49.754;20.158;2022-07-30T01:29:18;3.40;;;2.70;;
34064;SDS011;20339;49.754;20.158;2022-07-30T01:31:51;2.90;;;2.70;;
34064;SDS011;20339;49.754;20.158;2022-07-30T01:34:28;4.00;;;2.60;;
34064;SDS011;20339;49.754;20.158;2022-07-30T01:37:02;4.80;;;2.70;;
34064;SDS011;20339;49.754;20.158;2022-07-30T01:39:36;5.90;;;3.50;;
34064;SDS011;20339;49.754;20.158;2022-07-30T01:42:08;5.00;;;3.00;;
34064;SDS011;20339;49.754;20.158;2022-07-30T01:44:43;3.70;;;3.10;;
34064;SDS011;20339;49.754;20.158;2022-07-30T01:47:18;3.30;;;3.00;;
34064;SDS011;20339;49.754;20.158;2022-07-30T01:49:52;3.60;;;2.80;;
34064;SDS011;20339;49.754;20.158;2022-07-30T01:52:27;3.20;;;2.80;;
34064;SDS011;20339;49.754;20.158;2022-07-30T01:55:01;3.60;;;3.00;;
34064;SDS011;20339;49.754;20.158;2022-07-30T01:57:36;4.10;;;2.80;;
34064;SDS011;20339;49.754;20.158;2022-07-30T02:00:09;3.10;;;2.80;;
34064;SDS011;20339;49.754;20.158;2022-07-30T02:02:41;4.40;;;3.10;;
34064;SDS011;20339;49.754;20.158;2022-07-30T02:05:14;3.30;;;2.90;;
34064;SDS011;20339;49.754;20.158;2022-07-30T02:07:48;3.30;;;2.70;;
34064;SDS011;20339;49.754;20.158;2022-07-30T02:10:31;4.10;;;2.70;;
34064;SDS011;20339;49.754;20.158;2022-07-30T02:13:10;4.50;;;3.00;;
34064;SDS011;20339;49.754;20.158;2022-07-30T02:15:48;5.40;;;3.00;;
34064;SDS011;20339;49.754;20.158;2022-07-30T02:18:24;4.00;;;3.10;;
34064;SDS011;20339;49.754;20.158;2022-07-30T02:21:01;3.70;;;3.40;;
34064;SDS011;20339;49.754;20.158;2022-07-30T02:23:36;4.00;;;3.40;;
34064;SDS011;20339;49.754;20.158;2022-07-30T02:26:11;5.40;;;3.70;;
34064;SDS011;20339;49.754;20.158;2022-07-30T02:28:48;3.60;;;3.10;;
34064;SDS011;20339;49.754;20.158;2022-07-30T02:31:25;4.60;;;3.20;;
34064;SDS011;20339;49.754;20.158;2022-07-30T02:34:00;4.00;;;3.40;;
34064;SDS011;20339;49.754;20.158;2022-07-30T02:36:37;5.40;;;3.70;;
34064;SDS011;20339;49.754;20.158;2022-07-30T02:39:10;4.10;;;3.80;;
34064;SDS011;20339;49.754;20.158;2022-07-30T02:41:43;4.90;;;4.40;;
34064;SDS011;20339;49.754;20.158;2022-07-30T02:44:17;5.10;;;4.10;;
34064;SDS011;20339;49.754;20.158;2022-07-30T02:46:51;4.80;;;4.10;;
34064;SDS011;20339;49.754;20.158;2022-07-30T02:49:24;4.40;;;3.70;;
34064;SDS011;20339;49.754;20.158;2022-07-30T02:51:59;4.40;;;3.30;;
34064;SDS011;20339;49.754;20.158;2022-07-30T02:54:32;5.10;;;3.30;;
34064;SDS011;20339;49.754;20.158;2022-07-30T02:57:07;3.90;;;3.10;;
34064;SDS011;20339;49.754;20.158;2022-07-30T02:59:40;6.70;;;3.40;;
34064;SDS011;20339;49.754;20.158;2022-07-30T03:02:15;7.50;;;3.20;;
34064;SDS011;20339;49.754;20.158;2022-07-30T03:04:48;3.60;;;3.10;;
34064;SDS011;20339;49.754;20.158;2022-07-30T03:07:21;5.50;;;3.30;;
34064;SDS011;20339;49.754;20.158;2022-07-30T03:09:53;3.70;;;3.40;;
34064;SDS011;20339;49.754;20.158;2022-07-30T03:12:27;6.30;;;3.40;;
34064;SDS011;20339;49.754;20.158;2022-07-30T03:15:01;3.20;;;2.90;;
34064;SDS011;20339;49.754;20.158;2022-07-30T03:17:34;5.40;;;3.00;;
34064;SDS011;20339;49.754;20.158;2022-07-30T03:20:12;3.90;;;2.80;;
34064;SDS011;20339;49.754;20.158;2022-07-30T03:22:47;5.40;;;2.90;;
34064;SDS011;20339;49.754;20.158;2022-07-30T03:25:21;4.60;;;3.50;;
34064;SDS011;20339;49.754;20.158;2022-07-30T03:27:57;3.80;;;3.00;;
34064;SDS011;20339;49.754;20.158;2022-07-30T03:30:31;4.40;;;3.10;;
34064;SDS011;20339;49.754;20.158;2022-07-30T03:33:04;4.20;;;3.00;;
34064;SDS011;20339;49.754;20.158;2022-07-30T03:35:36;5.80;;;3.30;;
34064;SDS011;20339;49.754;20.158;2022-07-30T03:38:10;5.50;;;3.50;;
34064;SDS011;20339;49.754;20.158;2022-07-30T03:40:43;5.00;;;3.40;;
34064;SDS011;20339;49.754;20.158;2022-07-30T03:43:15;3.90;;;3.30;;
34064;SDS011;20339;49.754;20.158;2022-07-30T03:45:46;5.90;;;3.60;;
34064;SDS011;20339;49.754;20.158;2022-07-30T03:48:19;4.40;;;3.60;;
34064;SDS011;20339;49.754;20.158;2022-07-30T03:50:51;5.20;;;3.80;;
34064;SDS011;20339;49.754;20.158;2022-07-30T03:53:23;3.70;;;3.30;;
34064;SDS011;20339;49.754;20.158;2022-07-30T03:55:58;5.20;;;3.80;;
34064;SDS011;20339;49.754;20.158;2022-07-30T03:58:31;4.20;;;3.40;;
34064;SDS011;20339;49.754;20.158;2022-07-30T04:01:02;8.40;;;3.80;;
34064;SDS011;20339;49.754;20.158;2022-07-30T04:03:35;5.90;;;3.70;;
34064;SDS011;20339;49.754;20.158;2022-07-30T04:06:06;5.60;;;3.80;;
34064;SDS011;20339;49.754;20.158;2022-07-30T04:08:38;5.10;;;3.80;;
34064;SDS011;20339;49.754;20.158;2022-07-30T04:11:09;4.30;;;3.90;;
34064;SDS011;20339;49.754;20.158;2022-07-30T04:13:41;4.80;;;3.90;;
34064;SDS011;20339;49.754;20.158;2022-07-30T04:16:13;5.50;;;3.70;;
34064;SDS011;20339;49.754;20.158;2022-07-30T04:18:49;5.20;;;3.90;;
34064;SDS011;20339;49.754;20.158;2022-07-30T04:21:23;4.70;;;3.70;;
34064;SDS011;20339;49.754;20.158;2022-07-30T04:23:57;5.50;;;3.50;;
34064;SDS011;20339;49.754;20.158;2022-07-30T04:26:30;5.70;;;3.80;;
34064;SDS011;20339;49.754;20.158;2022-07-30T04:29:04;5.90;;;4.10;;
34064;SDS011;20339;49.754;20.158;2022-07-30T04:31:37;5.10;;;4.00;;
34064;SDS011;20339;49.754;20.158;2022-07-30T04:34:09;5.80;;;4.10;;
34064;SDS011;20339;49.754;20.158;2022-07-30T04:36:43;4.20;;;3.80;;
34064;SDS011;20339;49.754;20.158;2022-07-30T04:39:14;5.60;;;5.00;;
34064;SDS011;20339;49.754;20.158;2022-07-30T04:41:46;4.80;;;4.30;;
34064;SDS011;20339;49.754;20.158;2022-07-30T04:44:18;5.20;;;4.70;;
34064;SDS011;20339;49.754;20.158;2022-07-30T04:46:51;7.10;;;4.90;;
34064;SDS011;20339;49.754;20.158;2022-07-30T04:49:26;4.50;;;4.10;;
34064;SDS011;20339;49.754;20.158;2022-07-30T04:51:58;4.60;;;4.20;;
34064;SDS011;20339;49.754;20.158;2022-07-30T04:54:36;4.90;;;4.00;;
34064;SDS011;20339;49.754;20.158;2022-07-30T04:57:10;4.50;;;4.10;;
34064;SDS011;20339;49.754;20.158;2022-07-30T04:59:43;7.20;;;4.10;;
34064;SDS011;20339;49.754;20.158;2022-07-30T05:02:15;4.80;;;4.40;;
34064;SDS011;20339;49.754;20.158;2022-07-30T05:04:48;5.90;;;4.30;;
34064;SDS011;20339;49.754;20.158;2022-07-30T05:07:21;4.70;;;3.80;;
34064;SDS011;20339;49.754;20.158;2022-07-30T05:09:54;4.80;;;4.40;;
34064;SDS011;20339;49.754;20.158;2022-07-30T05:12:32;4.60;;;4.10;;
34064;SDS011;20339;49.754;20.158;2022-07-30T05:15:05;4.50;;;4.10;;
34064;SDS011;20339;49.754;20.158;2022-07-30T05:17:39;4.50;;;3.80;;
34064;SDS011;20339;49.754;20.158;2022-07-30T05:20:12;4.20;;;3.80;;
34064;SDS011;20339;49.754;20.158;2022-07-30T05:22:43;4.40;;;3.90;;
34064;SDS011;20339;49.754;20.158;2022-07-30T05:25:14;5.00;;;4.20;;
34064;SDS011;20339;49.754;20.158;2022-07-30T05:27:45;4.90;;;4.40;;
34064;SDS011;20339;49.754;20.158;2022-07-30T05:30:18;4.60;;;4.20;;
34064;SDS011;20339;49.754;20.158;2022-07-30T05:32:50;5.90;;;4.40;;
34064;SDS011;20339;49.754;20.158;2022-07-30T05:35:21;6.10;;;4.30;;
34064;SDS011;20339;49.754;20.158;2022-07-30T05:37:52;4.50;;;4.10;;
34064;SDS011;20339;49.754;20.158;2022-07-30T05:40:23;4.40;;;4.00;;
34064;SDS011;20339;49.754;20.158;2022-07-30T05:42:54;4.40;;;3.80;;
34064;SDS011;20339;49.754;20.158;2022-07-30T05:45:25;4.30;;;3.80;;
34064;SDS011;20339;49.754;20.158;2022-07-30T05:47:56;6.10;;;4.20;;
34064;SDS011;20339;49.754;20.158;2022-07-30T05:50:27;4.80;;;3.80;;
34064;SDS011;20339;49.754;20.158;2022-07-30T05:52:59;4.20;;;3.80;;
34064;SDS011;20339;49.754;20.158;2022-07-30T05:55:30;4.30;;;3.80;;
34064;SDS011;20339;49.754;20.158;2022-07-30T05:58:01;4.50;;;4.10;;
34064;SDS011;20339;49.754;20.158;2022-07-30T06:00:33;6.50;;;4.80;;
34064;SDS011;20339;49.754;20.158;2022-07-30T06:03:04;4.20;;;3.80;;
34064;SDS011;20339;49.754;20.158;2022-07-30T06:05:36;5.40;;;4.60;;
34064;SDS011;20339;49.754;20.158;2022-07-30T06:08:07;5.90;;;5.30;;
34064;SDS011;20339;49.754;20.158;2022-07-30T06:10:39;7.70;;;5.10;;
34064;SDS011;20339;49.754;20.158;2022-07-30T06:13:10;5.90;;;5.40;;
34064;SDS011;20339;49.754;20.158;2022-07-30T06:15:41;6.20;;;5.60;;
34064;SDS011;20339;49.754;20.158;2022-07-30T06:18:12;6.70;;;4.90;;
34064;SDS011;20339;49.754;20.158;2022-07-30T06:20:44;9.70;;;5.40;;
34064;SDS011;20339;49.754;20.158;2022-07-30T06:23:18;5.50;;;5.00;;
34064;SDS011;20339;49.754;20.158;2022-07-30T06:25:50;6.40;;;5.80;;
34064;SDS011;20339;49.754;20.158;2022-07-30T06:28:21;5.90;;;5.20;;
34064;SDS011;20339;49.754;20.158;2022-07-30T06:30:57;6.80;;;5.30;;
34064;SDS011;20339;49.754;20.158;2022-07-30T06:33:38;7.20;;;5.10;;
34064;SDS011;20339;49.754;20.158;2022-07-30T06:36:11;5.50;;;5.00;;
34064;SDS011;20339;49.754;20.158;2022-07-30T06:38:48;5.50;;;4.90;;
34064;SDS011;20339;49.754;20.158;2022-07-30T06:41:21;5.60;;;5.10;;
34064;SDS011;20339;49.754;20.158;2022-07-30T06:43:55;5.90;;;5.30;;
34064;SDS011;20339;49.754;20.158;2022-07-30T06:46:31;7.60;;;5.90;;
34064;SDS011;20339;49.754;20.158;2022-07-30T06:49:07;7.00;;;5.40;;
34064;SDS011;20339;49.754;20.158;2022-07-30T06:51:42;6.20;;;5.50;;
34064;SDS011;20339;49.754;20.158;2022-07-30T06:54:19;7.20;;;5.70;;
34064;SDS011;20339;49.754;20.158;2022-07-30T06:56:52;6.90;;;5.60;;
34064;SDS011;20339;49.754;20.158;2022-07-30T06:59:33;7.80;;;5.50;;
34064;SDS011;20339;49.754;20.158;2022-07-30T07:02:12;6.90;;;5.10;;
34064;SDS011;20339;49.754;20.158;2022-07-30T07:04:47;6.90;;;5.50;;
34064;SDS011;20339;49.754;20.158;2022-07-30T07:07:21;6.00;;;5.40;;
34064;SDS011;20339;49.754;20.158;2022-07-30T07:09:56;5.60;;;4.60;;
34064;SDS011;20339;49.754;20.158;2022-07-30T07:12:30;6.40;;;5.10;;
34064;SDS011;20339;49.754;20.158;2022-07-30T07:15:10;5.10;;;4.50;;
34064;SDS011;20339;49.754;20.158;2022-07-30T07:17:44;5.20;;;4.50;;
34064;SDS011;20339;49.754;20.158;2022-07-30T07:20:16;5.50;;;4.40;;
34064;SDS011;20339;49.754;20.158;2022-07-30T07:22:55;6.10;;;4.70;;
34064;SDS011;20339;49.754;20.158;2022-07-30T07:25:28;5.20;;;4.30;;
34064;SDS011;20339;49.754;20.158;2022-07-30T07:28:10;4.60;;;4.20;;
34064;SDS011;20339;49.754;20.158;2022-07-30T07:30:46;5.00;;;4.50;;
34064;SDS011;20339;49.754;20.158;2022-07-30T07:33:21;6.50;;;5.20;;
34064;SDS011;20339;49.754;20.158;2022-07-30T07:35:57;6.80;;;5.10;;
34064;SDS011;20339;49.754;20.158;2022-07-30T07:38:30;6.20;;;5.40;;
34064;SDS011;20339;49.754;20.158;2022-07-30T07:41:01;5.50;;;5.00;;
34064;SDS011;20339;49.754;20.158;2022-07-30T07:43:34;5.30;;;4.50;;
34064;SDS011;20339;49.754;20.158;2022-07-30T07:46:07;4.60;;;4.20;;
34064;SDS011;20339;49.754;20.158;2022-07-30T07:48:43;4.70;;;4.20;;
34064;SDS011;20339;49.754;20.158;2022-07-30T07:51:14;3.90;;;3.60;;
34064;SDS011;20339;49.754;20.158;2022-07-30T07:53:48;6.90;;;4.90;;
34064;SDS011;20339;49.754;20.158;2022-07-30T07:56:20;4.50;;;4.10;;
34064;SDS011;20339;49.754;20.158;2022-07-30T07:58:51;4.80;;;4.30;;
34064;SDS011;20339;49.754;20.158;2022-07-30T08:01:23;5.40;;;4.90;;
34064;SDS011;20339;49.754;20.158;2022-07-30T08:03:54;6.90;;;5.50;;
34064;SDS011;20339;49.754;20.158;2022-07-30T08:06:25;5.60;;;5.10;;
34064;SDS011;20339;49.754;20.158;2022-07-30T08:08:56;6.30;;;5.20;;
34064;SDS011;20339;49.754;20.158;2022-07-30T08:11:29;5.70;;;4.60;;
34064;SDS011;20339;49.754;20.158;2022-07-30T08:14:00;5.50;;;5.00;;
34064;SDS011;20339;49.754;20.158;2022-07-30T08:16:31;6.00;;;5.30;;
34064;SDS011;20339;49.754;20.158;2022-07-30T08:19:02;5.70;;;4.90;;
34064;SDS011;20339;49.754;20.158;2022-07-30T08:21:33;5.30;;;4.60;;
34064;SDS011;20339;49.754;20.158;2022-07-30T08:24:05;5.30;;;4.80;;
34064;SDS011;20339;49.754;20.158;2022-07-30T08:26:36;8.80;;;6.20;;
34064;SDS011;20339;49.754;20.158;2022-07-30T08:29:08;6.00;;;5.10;;
34064;SDS011;20339;49.754;20.158;2022-07-30T08:31:40;10.00;;;7.10;;
34064;SDS011;20339;49.754;20.158;2022-07-30T08:34:12;5.30;;;4.70;;
34064;SDS011;20339;49.754;20.158;2022-07-30T08:36:43;4.70;;;4.20;;
34064;SDS011;20339;49.754;20.158;2022-07-30T08:39:17;4.40;;;4.10;;
34064;SDS011;20339;49.754;20.158;2022-07-30T08:41:48;5.10;;;4.60;;
34064;SDS011;20339;49.754;20.158;2022-07-30T08:44:19;5.50;;;4.00;;
34064;SDS011;20339;49.754;20.158;2022-07-30T08:46:51;5.00;;;4.50;;
34064;SDS011;20339;49.754;20.158;2022-07-30T08:49:24;5.30;;;4.40;;
34064;SDS011;20339;49.754;20.158;2022-07-30T08:51:55;4.40;;;4.00;;
34064;SDS011;20339;49.754;20.158;2022-07-30T08:54:27;4.30;;;3.90;;
34064;SDS011;20339;49.754;20.158;2022-07-30T08:56:58;4.00;;;3.60;;
34064;SDS011;20339;49.754;20.158;2022-07-30T08:59:29;4.10;;;3.80;;
34064;SDS011;20339;49.754;20.158;2022-07-30T09:02:01;4.80;;;3.60;;
34064;SDS011;20339;49.754;20.158;2022-07-30T09:04:33;5.60;;;3.70;;
34064;SDS011;20339;49.754;20.158;2022-07-30T09:07:04;4.00;;;3.70;;
34064;SDS011;20339;49.754;20.158;2022-07-30T09:09:35;5.00;;;3.60;;
34064;SDS011;20339;49.754;20.158;2022-07-30T09:15:05;5.50;;;4.00;;
34064;SDS011;20339;49.754;20.158;2022-07-30T09:17:48;4.60;;;4.00;;
34064;SDS011;20339;49.754;20.158;2022-07-30T09:20:22;4.50;;;4.10;;
34064;SDS011;20339;49.754;20.158;2022-07-30T09:22:55;5.20;;;4.00;;
34064;SDS011;20339;49.754;20.158;2022-07-30T09:25:37;5.00;;;3.90;;
34064;SDS011;20339;49.754;20.158;2022-07-30T09:28:12;4.70;;;4.00;;
34064;SDS011;20339;49.754;20.158;2022-07-30T09:30:50;4.80;;;4.40;;
34064;SDS011;20339;49.754;20.158;2022-07-30T09:33:33;4.30;;;3.90;;
34064;SDS011;20339;49.754;20.158;2022-07-30T09:36:06;5.00;;;4.30;;
34064;SDS011;20339;49.754;20.158;2022-07-30T09:38:47;4.80;;;4.30;;
34064;SDS011;20339;49.754;20.158;2022-07-30T09:41:20;4.30;;;3.90;;
34064;SDS011;20339;49.754;20.158;2022-07-30T09:44:03;5.80;;;4.70;;
34064;SDS011;20339;49.754;20.158;2022-07-30T09:46:42;4.30;;;3.70;;
34064;SDS011;20339;49.754;20.158;2022-07-30T09:49:15;5.00;;;4.20;;
34064;SDS011;20339;49.754;20.158;2022-07-30T09:51:48;4.40;;;4.00;;
34064;SDS011;20339;49.754;20.158;2022-07-30T09:54:19;4.80;;;4.30;;
34064;SDS011;20339;49.754;20.158;2022-07-30T09:57:02;5.10;;;4.40;;
34064;SDS011;20339;49.754;20.158;2022-07-30T09:59:35;4.60;;;4.20;;
34064;SDS011;20339;49.754;20.158;2022-07-30T10:02:07;9.40;;;4.90;;
34064;SDS011;20339;49.754;20.158;2022-07-30T10:04:41;4.50;;;4.10;;
34064;SDS011;20339;49.754;20.158;2022-07-30T10:07:17;5.30;;;4.10;;
34064;SDS011;20339;49.754;20.158;2022-07-30T10:09:53;4.40;;;4.00;;
34064;SDS011;20339;49.754;20.158;2022-07-30T10:12:31;4.50;;;4.10;;
34064;SDS011;20339;49.754;20.158;2022-07-30T10:15:12;4.20;;;3.80;;
34064;SDS011;20339;49.754;20.158;2022-07-30T10:17:49;4.40;;;4.00;;
34064;SDS011;20339;49.754;20.158;2022-07-30T10:20:26;4.60;;;4.20;;
34064;SDS011;20339;49.754;20.158;2022-07-30T10:22:59;4.10;;;3.70;;
34064;SDS011;20339;49.754;20.158;2022-07-30T10:25:39;6.50;;;4.20;;
34064;SDS011;20339;49.754;20.158;2022-07-30T10:28:14;4.60;;;4.00;;
34064;SDS011;20339;49.754;20.158;2022-07-30T10:30:49;3.80;;;3.50;;
34064;SDS011;20339;49.754;20.158;2022-07-30T10:33:23;5.70;;;3.60;;
34064;SDS011;20339;49.754;20.158;2022-07-30T10:35:56;4.10;;;3.50;;
34064;SDS011;20339;49.754;20.158;2022-07-30T10:38:29;3.60;;;3.20;;
34064;SDS011;20339;49.754;20.158;2022-07-30T10:41:04;4.80;;;3.70;;
34064;SDS011;20339;49.754;20.158;2022-07-30T10:47:00;4.60;;;4.00;;
34064;SDS011;20339;49.754;20.158;2022-07-30T10:49:33;4.10;;;3.70;;
34064;SDS011;20339;49.754;20.158;2022-07-30T10:52:04;3.70;;;3.30;;
34064;SDS011;20339;49.754;20.158;2022-07-30T10:54:36;3.90;;;3.20;;
34064;SDS011;20339;49.754;20.158;2022-07-30T10:57:09;3.80;;;3.40;;
34064;SDS011;20339;49.754;20.158;2022-07-30T11:05:42;3.70;;;3.40;;
34064;SDS011;20339;49.754;20.158;2022-07-30T11:08:33;3.80;;;3.40;;
34064;SDS011;20339;49.754;20.158;2022-07-30T11:14:14;4.10;;;3.50;;
34064;SDS011;20339;49.754;20.158;2022-07-30T11:16:58;3.90;;;3.60;;
34064;SDS011;20339;49.754;20.158;2022-07-30T11:19:29;4.20;;;3.80;;
34064;SDS011;20339;49.754;20.158;2022-07-30T11:24:54;5.00;;;4.50;;
34064;SDS011;20339;49.754;20.158;2022-07-30T11:27:34;4.40;;;4.00;;
34064;SDS011;20339;49.754;20.158;2022-07-30T11:33:21;5.10;;;4.10;;
34064;SDS011;20339;49.754;20.158;2022-07-30T11:38:51;5.40;;;4.40;;
34064;SDS011;20339;49.754;20.158;2022-07-30T11:41:27;5.30;;;3.90;;
34064;SDS011;20339;49.754;20.158;2022-07-30T11:46:57;5.00;;;3.90;;
34064;SDS011;20339;49.754;20.158;2022-07-30T11:49:34;4.40;;;4.00;;
34064;SDS011;20339;49.754;20.158;2022-07-30T11:52:06;4.80;;;4.00;;
34064;SDS011;20339;49.754;20.158;2022-07-30T11:54:50;4.60;;;3.80;;
34064;SDS011;20339;49.754;20.158;2022-07-30T12:00:11;4.60;;;4.00;;
34064;SDS011;20339;49.754;20.158;2022-07-30T12:02:45;4.10;;;3.70;;
34064;SDS011;20339;49.754;20.158;2022-07-30T12:05:21;3.80;;;3.40;;
34064;SDS011;20339;49.754;20.158;2022-07-30T12:07:57;3.90;;;3.60;;
34064;SDS011;20339;49.754;20.158;2022-07-30T12:10:29;4.30;;;3.90;;
34064;SDS011;20339;49.754;20.158;2022-07-30T12:13:12;3.80;;;3.50;;
34064;SDS011;20339;49.754;20.158;2022-07-30T12:15:45;4.70;;;4.10;;
34064;SDS011;20339;49.754;20.158;2022-07-30T12:18:23;4.60;;;4.00;;
34064;SDS011;20339;49.754;20.158;2022-07-30T12:20:56;4.60;;;4.00;;
34064;SDS011;20339;49.754;20.158;2022-07-30T12:23:29;5.30;;;4.10;;
34064;SDS011;20339;49.754;20.158;2022-07-30T12:26:03;6.80;;;4.50;;
34064;SDS011;20339;49.754;20.158;2022-07-30T12:28:35;5.00;;;4.40;;
34064;SDS011;20339;49.754;20.158;2022-07-30T12:31:07;4.40;;;4.00;;
34064;SDS011;20339;49.754;20.158;2022-07-30T12:33:42;4.90;;;4.50;;
34064;SDS011;20339;49.754;20.158;2022-07-30T12:36:23;4.80;;;4.30;;
34064;SDS011;20339;49.754;20.158;2022-07-30T12:38:57;4.90;;;4.40;;
34064;SDS011;20339;49.754;20.158;2022-07-30T12:41:42;4.80;;;4.40;;
34064;SDS011;20339;49.754;20.158;2022-07-30T12:47:18;4.80;;;4.20;;
34064;SDS011;20339;49.754;20.158;2022-07-30T12:49:51;4.70;;;4.30;;
34064;SDS011;20339;49.754;20.158;2022-07-30T12:52:24;4.50;;;4.10;;
34064;SDS011;20339;49.754;20.158;2022-07-30T12:54:58;4.00;;;3.60;;
34064;SDS011;20339;49.754;20.158;2022-07-30T13:00:28;4.30;;;3.70;;
34064;SDS011;20339;49.754;20.158;2022-07-30T13:03:17;5.30;;;4.50;;
34064;SDS011;20339;49.754;20.158;2022-07-30T13:05:51;5.80;;;4.10;;
34064;SDS011;20339;49.754;20.158;2022-07-30T13:11:18;6.70;;;4.60;;
34064;SDS011;20339;49.754;20.158;2022-07-30T13:13:51;5.30;;;4.30;;
34064;SDS011;20339;49.754;20.158;2022-07-30T13:16:22;5.00;;;4.50;;
34064;SDS011;20339;49.754;20.158;2022-07-30T13:18:58;5.60;;;4.40;;
34064;SDS011;20339;49.754;20.158;2022-07-30T13:21:30;4.70;;;4.30;;
34064;SDS011;20339;49.754;20.158;2022-07-30T13:24:02;6.60;;;4.60;;
34064;SDS011;20339;49.754;20.158;2022-07-30T13:26:34;5.20;;;4.20;;
34064;SDS011;20339;49.754;20.158;2022-07-30T13:29:05;4.80;;;4.20;;
34064;SDS011;20339;49.754;20.158;2022-07-30T13:31:36;5.40;;;4.40;;
34064;SDS011;20339;49.754;20.158;2022-07-30T13:34:08;5.30;;;4.40;;
34064;SDS011;20339;49.754;20.158;2022-07-30T13:36:39;5.60;;;4.90;;
34064;SDS011;20339;49.754;20.158;2022-07-30T13:39:10;5.20;;;4.70;;
34064;SDS011;20339;49.754;20.158;2022-07-30T13:41:41;6.30;;;5.00;;
34064;SDS011;20339;49.754;20.158;2022-07-30T13:44:13;5.20;;;4.70;;
34064;SDS011;20339;49.754;20.158;2022-07-30T13:46:44;5.70;;;5.00;;
34064;SDS011;20339;49.754;20.158;2022-07-30T13:49:16;5.40;;;4.90;;
34064;SDS011;20339;49.754;20.158;2022-07-30T13:51:48;5.90;;;4.40;;
34064;SDS011;20339;49.754;20.158;2022-07-30T13:54:22;4.20;;;3.70;;
34064;SDS011;20339;49.754;20.158;2022-07-30T13:56:56;4.80;;;3.50;;
34064;SDS011;20339;49.754;20.158;2022-07-30T13:59:32;3.30;;;2.90;;
34064;SDS011;20339;49.754;20.158;2022-07-30T14:02:06;4.10;;;3.10;;
34064;SDS011;20339;49.754;20.158;2022-07-30T14:04:43;4.30;;;3.80;;
34064;SDS011;20339;49.754;20.158;2022-07-30T14:07:16;3.50;;;3.20;;
34064;SDS011;20339;49.754;20.158;2022-07-30T14:09:51;3.50;;;3.00;;
34064;SDS011;20339;49.754;20.158;2022-07-30T14:12:33;2.90;;;2.70;;
34064;SDS011;20339;49.754;20.158;2022-07-30T14:15:10;4.80;;;3.60;;
34064;SDS011;20339;49.754;20.158;2022-07-30T14:17:47;5.40;;;2.70;;
34064;SDS011;20339;49.754;20.158;2022-07-30T14:20:23;5.80;;;3.20;;
34064;SDS011;20339;49.754;20.158;2022-07-30T14:23:00;5.50;;;3.20;;
34064;SDS011;20339;49.754;20.158;2022-07-30T14:25:35;3.90;;;2.60;;
34064;SDS011;20339;49.754;20.158;2022-07-30T14:28:17;4.10;;;3.20;;
34064;SDS011;20339;49.754;20.158;2022-07-30T14:30:52;2.90;;;2.60;;
34064;SDS011;20339;49.754;20.158;2022-07-30T14:33:29;3.30;;;2.70;;
34064;SDS011;20339;49.754;20.158;2022-07-30T14:36:02;6.90;;;5.60;;
34064;SDS011;20339;49.754;20.158;2022-07-30T14:38:37;2.70;;;2.50;;
34064;SDS011;20339;49.754;20.158;2022-07-30T14:41:14;2.40;;;2.20;;
34064;SDS011;20339;49.754;20.158;2022-07-30T14:43:46;2.70;;;2.50;;
34064;SDS011;20339;49.754;20.158;2022-07-30T14:46:18;3.20;;;2.50;;
34064;SDS011;20339;49.754;20.158;2022-07-30T14:48:50;3.10;;;2.30;;
34064;SDS011;20339;49.754;20.158;2022-07-30T14:51:21;2.70;;;2.50;;
34064;SDS011;20339;49.754;20.158;2022-07-30T14:53:53;3.00;;;2.70;;
34064;SDS011;20339;49.754;20.158;2022-07-30T14:56:25;3.40;;;2.70;;
34064;SDS011;20339;49.754;20.158;2022-07-30T14:58:56;4.00;;;3.30;;
34064;SDS011;20339;49.754;20.158;2022-07-30T15:01:28;6.40;;;2.80;;
34064;SDS011;20339;49.754;20.158;2022-07-30T15:04:00;3.90;;;2.70;;
34064;SDS011;20339;49.754;20.158;2022-07-30T15:06:36;2.40;;;2.20;;
34064;SDS011;20339;49.754;20.158;2022-07-30T15:09:10;3.10;;;2.40;;
34064;SDS011;20339;49.754;20.158;2022-07-30T15:11:42;2.20;;;2.00;;
34064;SDS011;20339;49.754;20.158;2022-07-30T15:14:30;4.50;;;2.40;;
34064;SDS011;20339;49.754;20.158;2022-07-30T15:17:05;2.70;;;2.40;;
34064;SDS011;20339;49.754;20.158;2022-07-30T15:19:37;3.00;;;2.70;;
34064;SDS011;20339;49.754;20.158;2022-07-30T15:22:10;2.70;;;2.50;;
34064;SDS011;20339;49.754;20.158;2022-07-30T15:24:41;3.30;;;2.90;;
34064;SDS011;20339;49.754;20.158;2022-07-30T15:27:16;5.20;;;3.10;;
34064;SDS011;20339;49.754;20.158;2022-07-30T15:29:53;4.70;;;2.70;;
34064;SDS011;20339;49.754;20.158;2022-07-30T15:32:32;2.80;;;2.50;;
34064;SDS011;20339;49.754;20.158;2022-07-30T15:35:08;3.60;;;2.90;;
34064;SDS011;20339;49.754;20.158;2022-07-30T15:37:41;8.20;;;5.00;;
34064;SDS011;20339;49.754;20.158;2022-07-30T15:40:13;6.10;;;4.40;;
34064;SDS011;20339;49.754;20.158;2022-07-30T15:42:50;4.50;;;4.10;;
34064;SDS011;20339;49.754;20.158;2022-07-30T15:45:22;3.40;;;2.90;;
34064;SDS011;20339;49.754;20.158;2022-07-30T15:47:58;4.80;;;3.70;;
34064;SDS011;20339;49.754;20.158;2022-07-30T15:50:34;4.30;;;3.90;;
34064;SDS011;20339;49.754;20.158;2022-07-30T15:53:15;4.60;;;4.20;;